Time;durP1;ratioP1;P1;durP2;ratioP2;P2;SDS_P1;SDS_P2;PMS_P1;PMS_P2;Temp;Humidity;BMP_temperature;BMP_pressure;BME280_temperature;BME280_humidity;BME280_pressure;Samples;Min_cycle;Max_cycle;Signal;HPM_P1;HPM_P2
2021/03/15 05:59:06;;;;;;;;;;;;;;;3.84;100.00;96836.08;1703843;83;20490;-70
2021/03/15 06:01:38;;;;;;;;;;;;;;;3.83;100.00;96837.09;1713649;83;20896;-67
2021/03/15 06:04:26;;;;;;;;;;;;;;;3.83;100.00;96838.39;1721394;81;21789;-66
2021/03/15 06:06:54;;;;;;;;;;;;;;;3.84;100.00;96840.48;1690931;83;20284;-68
2021/03/15 06:09:25;;;;;;;;;;;;;;;3.84;100.00;96847.78;1714083;81;20536;-68
2021/03/15 06:12:04;;;;;;;;;;;;;;;3.84;100.00;96847.78;1729032;81;20536;-70
2021/03/15 06:14:33;;;;;;;;;;;;;;;3.87;100.00;96840.05;1727070;81;20578;-66
2021/03/15 06:17:01;;;;;;;;;;;;;;;3.84;99.80;96845.18;1706428;81;22385;-66
2021/03/15 06:19:30;;;;;;;;;;;;;;;3.82;100.00;96842.00;1720366;81;20505;-68
2021/03/15 06:21:57;;;;;;;;;;;;;;;3.83;99.81;96840.99;1720196;81;20494;-72
2021/03/15 06:24:27;;;;;;;;;;;;;;;3.83;99.83;96839.70;1736051;81;20485;-71
2021/03/15 06:26:56;;;;;;;;;;;;;;;3.84;100.00;96834.78;1716899;82;20961;-70
2021/03/15 06:29:26;;;;;;;;;;;;;;;3.86;99.25;96839.26;1729449;81;22526;-72
2021/03/15 06:31:53;;;;;;;;;;;;;;;3.87;99.41;96840.84;1724466;81;20497;-69
2021/03/15 06:34:22;;;;;;;;;;;;;;;3.87;99.00;96838.75;1745798;81;20573;-73
2021/03/15 06:36:49;;;;;;;;;;;;;;;3.86;98.03;96845.75;1717392;81;20570;-67
2021/03/15 06:39:17;;;;;;;;;;;;;;;3.85;98.04;96841.57;1702793;81;20642;-70
2021/03/15 06:41:46;;;;;;;;;;;;;;;3.86;97.87;96847.56;1714235;81;21914;-71
2021/03/15 06:44:13;;;;;;;;;;;;;;;3.84;97.26;96845.18;1710866;81;20354;-75
2021/03/15 06:46:42;;;;;;;;;;;;;;;3.86;98.42;96848.36;1707633;81;20655;-74
2021/03/15 06:49:10;;;;;;;;;;;;;;;3.87;98.57;96849.94;1709633;81;20692;-68
2021/03/15 06:52:00;;;;;;;;;;;;;;;3.88;97.79;96845.54;1720551;81;21106;-69
2021/03/15 06:54:28;;;;;;;;;;;;;;;3.89;98.48;96845.29;1708414;81;21991;-69
2021/03/15 06:57:20;;;;;;;;;;;;;;;3.92;97.42;96846.66;1710105;81;20433;-68
2021/03/15 06:59:49;;;;;;;;;;;;;;;3.94;96.99;96849.84;1720790;81;20397;-71
2021/03/15 07:02:21;;;;;;;;;;;;;;;3.97;97.18;96842.08;1679684;82;21095;-67
2021/03/15 07:04:50;;;;;;;;;;;;;;;4.01;97.09;96848.42;1674069;83;20526;-67
2021/03/15 07:07:26;;;;;;;;;;;;;;;4.05;95.96;96850.84;1677830;82;21595;-70
2021/03/15 07:09:55;;;;;;;;;;;;;;;4.07;94.57;96841.02;1683186;82;20583;-69
2021/03/15 07:12:26;;;;;;;;;;;;;;;4.07;94.66;96846.22;1670704;83;20591;-71
2021/03/15 07:14:59;;;;;;;;;;;;;;;4.05;93.87;96849.05;1676269;82;20509;-66
2021/03/15 07:17:27;;;;;;;;;;;;;;;4.03;94.03;96842.50;1689501;83;21074;-69
2021/03/15 07:19:55;;;;;;;;;;;;;;;4.01;94.22;96844.53;1680076;83;22174;-66
2021/03/15 07:22:29;;;;;;;;;;;;;;;4.00;94.89;96842.94;1680554;82;20618;-68
2021/03/15 07:25:08;;;;;;;;;;;;;;;4.02;94.77;96839.62;1680540;82;20625;-65
2021/03/15 07:27:37;;;;;;;;;;;;;;;4.05;94.41;96833.95;1671834;83;20794;-68
2021/03/15 07:30:37;;;;;;;;;;;;;;;4.08;93.91;96841.31;1688257;82;20554;-67
2021/03/15 07:33:07;;;;;;;;;;;;;;;4.07;93.74;96841.81;1677675;82;21928;-64
2021/03/15 07:35:38;;;;;;;;;;;;;;;4.06;93.04;96840.73;1685902;82;20185;-64
2021/03/15 07:38:06;;;;;;;;;;;;;;;4.06;92.62;96832.94;1694123;81;20616;-72
2021/03/15 07:40:39;;;;;;;;;;;;;;;4.05;93.29;96837.34;1692565;81;20921;-66
2021/03/15 07:43:10;;;;;;;;;;;;;;;4.06;93.81;96839.44;1679881;83;20478;-69
2021/03/15 07:45:45;;;;;;;;;;;;;;;4.06;93.47;96835.53;1682488;82;22324;-70
2021/03/15 07:48:21;;;;;;;;;;;;;;;4.07;93.70;96835.83;1678995;83;20488;-67
2021/03/15 07:50:56;;;;;;;;;;;;;;;4.06;93.77;96832.94;1671439;84;20443;-65
2021/03/15 07:53:37;;;;;;;;;;;;;;;4.09;94.09;96828.59;1674287;83;20483;-68
2021/03/15 07:56:06;;;;;;;;;;;;;;;4.13;94.43;96827.91;1680022;82;21008;-64
2021/03/15 07:58:39;;;;;;;;;;;;;;;4.17;94.31;96829.06;1680654;83;40304;-69
2021/03/15 08:01:08;;;;;;;;;;;;;;;4.21;93.96;96830.17;1692851;81;20293;-67
2021/03/15 08:03:38;;;;;;;;;;;;;;;4.20;93.26;96816.09;1710894;81;20499;-67
2021/03/15 08:06:10;;;;;;;;;;;;;;;4.18;93.31;96819.42;1713698;81;20718;-64
2021/03/15 08:08:38;;;;;;;;;;;;;;;4.18;93.36;96823.32;1705234;81;20706;-68
2021/03/15 08:11:08;;;;;;;;;;;;;;;4.18;93.04;96820.72;1699180;81;22301;-65
2021/03/15 08:13:48;;;;;;;;;;;;;;;4.19;94.68;96819.20;1707726;81;20527;-65
2021/03/15 08:16:19;;;;;;;;;;;;;;;4.25;94.74;96816.98;1709552;81;20590;-65
2021/03/15 08:18:48;;;;;;;;;;;;;;;4.31;93.92;96820.01;1718188;81;20575;-65
2021/03/15 08:21:27;;;;;;;;;;;;;;;4.33;93.08;96817.95;1714190;81;20660;-67
2021/03/15 08:23:55;;;;;;;;;;;;;;;4.36;93.36;96818.02;1711970;81;21667;-69
2021/03/15 08:26:23;;;;;;;;;;;;;;;4.39;92.94;96814.97;1715269;81;20395;-66
2021/03/15 08:28:54;;;;;;;;;;;;;;;4.44;92.80;96818.17;1719974;81;20780;-65
2021/03/15 08:31:26;;;;;;;;;;;;;;;4.45;92.50;96817.16;1720867;81;20660;-66
2021/03/15 08:33:55;;;;;;;;;;;;;;;4.43;91.79;96816.08;1702250;83;20633;-64
2021/03/15 08:36:24;;;;;;;;;;;;;;;4.42;91.70;96807.99;1711321;81;20532;-65
2021/03/15 08:38:53;;;;;;;;;;;;;;;4.41;91.60;96809.52;1723929;81;20598;-64
2021/03/15 08:41:22;;;;;;;;;;;;;;;4.37;91.64;96810.49;1707172;81;20525;-66
2021/03/15 08:43:51;;;;;;;;;;;;;;;4.28;91.43;96810.55;1711277;81;20930;-61
2021/03/15 08:46:30;;;;;;;;;;;;;;;4.24;93.09;96808.13;1699931;81;20483;-66
2021/03/15 08:49:02;;;;;;;;;;;;;;;4.23;93.74;96807.34;1714936;81;21936;-65
2021/03/15 08:51:36;;;;;;;;;;;;;;;4.21;93.20;96798.97;1723693;82;20826;-69
2021/03/15 08:54:06;;;;;;;;;;;;;;;4.18;93.01;96800.70;1699801;81;20495;-62
2021/03/15 08:56:39;;;;;;;;;;;;;;;4.20;94.34;96800.48;1694104;81;20492;-70
2021/03/15 08:59:09;;;;;;;;;;;;;;;4.23;93.50;96800.84;1704456;81;20518;-65
2021/03/15 09:01:49;;;;;;;;;;;;;;;4.26;92.78;96802.17;1712719;81;22283;-69
2021/03/15 09:04:31;;;;;;;;;;;;;;;4.24;92.79;96805.53;1698114;81;20579;-68
2021/03/15 09:06:59;;;;;;;;;;;;;;;4.18;92.86;96794.72;1703380;81;20232;-64
2021/03/15 09:09:30;;;;;;;;;;;;;;;4.16;93.62;96792.87;1717731;81;20511;-67
2021/03/15 09:11:59;;;;;;;;;;;;;;;4.17;93.58;96787.96;1700744;81;20611;-61
2021/03/15 09:14:30;;;;;;;;;;;;;;;4.16;93.97;96791.06;1713115;81;21884;-66
2021/03/15 09:17:03;;;;;;;;;;;;;;;4.16;93.72;96787.16;1706218;81;20551;-68
2021/03/15 09:19:35;;;;;;;;;;;;;;;4.17;93.58;96786.66;1704804;81;20540;-61
2021/03/15 09:22:28;;;;;;;;;;;;;;;4.18;93.07;96783.02;1712273;81;20637;-65
2021/03/15 09:25:01;;;;;;;;;;;;;;;4.18;93.26;96786.41;1704871;81;20743;-66
2021/03/15 09:27:36;;;;;;;;;;;;;;;4.14;93.41;96786.59;1704808;81;21932;-66
2021/03/15 09:30:19;;;;;;;;;;;;;;;4.12;92.65;96789.92;1706760;81;20601;-63
2021/03/15 09:32:49;;;;;;;;;;;;;;;4.10;93.11;96784.18;1691514;81;20496;-64
2021/03/15 09:35:23;;;;;;;;;;;;;;;4.13;93.52;96788.91;1715282;81;20637;-65
2021/03/15 09:37:56;;;;;;;;;;;;;;;4.12;93.03;96791.22;1715920;81;20549;-69
2021/03/15 09:40:29;;;;;;;;;;;;;;;4.13;93.63;96782.91;1646238;85;21290;-70
2021/03/15 09:42:57;;;;;;;;;;;;;;;4.16;94.52;96787.67;1646277;84;20343;-67
2021/03/15 09:45:34;;;;;;;;;;;;;;;4.20;93.93;96784.89;1646911;84;20557;-68
2021/03/15 09:48:19;;;;;;;;;;;;;;;4.23;93.66;96784.45;1643297;84;20781;-69
2021/03/15 09:50:54;;;;;;;;;;;;;;;4.26;93.78;96783.97;1645528;84;20807;-67
2021/03/15 09:53:24;;;;;;;;;;;;;;;4.29;93.60;96781.72;1674562;84;21913;-66
2021/03/15 09:56:05;;;;;;;;;;;;;;;4.32;92.17;96782.55;1671778;83;20609;-67
2021/03/15 09:58:35;;;;;;;;;;;;;;;4.30;92.10;96783.81;1653995;83;20501;-66
2021/03/15 10:01:17;;;;;;;;;;;;;;;4.27;91.31;96781.15;1711721;81;20809;-64
2021/03/15 10:04:00;;;;;;;;;;;;;;;4.24;91.32;96782.13;1705114;81;20605;-65
2021/03/15 10:06:39;;;;;;;;;;;;;;;4.21;91.53;96782.57;1708769;81;22077;-63
2021/03/15 10:09:14;;;;;;;;;;;;;;;4.21;92.25;96782.06;1639385;83;20351;-65
2021/03/15 10:11:48;;;;;;;;;;;;;;;4.25;93.08;96780.58;1620849;85;20289;-72
2021/03/15 10:14:35;;;;;;;;;;;;;;;4.30;93.87;96778.61;1638307;85;20622;-68
2021/03/15 10:17:21;;;;;;;;;;;;;;;4.35;92.81;96777.41;1640640;85;20596;-71
2021/03/15 10:19:52;;;;;;;;;;;;;;;4.36;91.79;96777.70;1655775;83;21954;-66
2021/03/15 10:22:20;;;;;;;;;;;;;;;4.36;91.37;96784.20;1683942;83;20357;-72
2021/03/15 10:24:50;;;;;;;;;;;;;;;4.32;91.06;96777.88;1686043;83;20477;-63
2021/03/15 10:27:23;;;;;;;;;;;;;;;4.33;91.20;96774.23;1685951;83;20717;-65
2021/03/15 10:29:59;;;;;;;;;;;;;;;4.31;91.42;96772.39;1684091;83;21163;-67
2021/03/15 10:32:29;;;;;;;;;;;;;;;4.32;92.09;96774.74;1683846;83;21938;-68
2021/03/15 10:35:05;;;;;;;;;;;;;;;4.37;92.15;96773.28;1681470;83;20643;-67
2021/03/15 10:37:36;;;;;;;;;;;;;;;4.37;90.65;96774.08;1681574;83;20151;-70
2021/03/15 10:40:08;;;;;;;;;;;;;;;4.35;90.94;96767.52;1681799;83;20615;-65
2021/03/15 10:42:37;;;;;;;;;;;;;;;4.33;91.03;96768.53;1669319;84;20756;-67
2021/03/15 10:45:09;;;;;;;;;;;;;;;4.36;90.82;96760.78;1690901;82;20923;-66
2021/03/15 10:47:39;;;;;;;;;;;;;;;4.39;90.13;96767.35;1685142;83;20481;-70
2021/03/15 10:50:33;;;;;;;;;;;;;;;4.37;90.34;96766.27;1688720;83;20302;-69
2021/03/15 10:53:22;;;;;;;;;;;;;;;4.39;90.91;96758.25;1669203;83;20512;-67
2021/03/15 10:55:51;;;;;;;;;;;;;;;4.39;91.06;96756.44;1669133;83;20563;-69
2021/03/15 10:58:22;;;;;;;;;;;;;;;4.39;90.39;96753.84;1650875;83;20492;-67
2021/03/15 11:00:58;;;;;;;;;;;;;;;4.38;90.93;96749.66;1650669;84;20724;-64
2021/03/15 11:03:32;;;;;;;;;;;;;;;4.40;91.40;96742.89;1657782;84;20487;-63
2021/03/15 11:06:11;;;;;;;;;;;;;;;4.44;90.59;96734.42;1682212;82;20634;-67
2021/03/15 11:08:39;;;;;;;;;;;;;;;4.46;91.05;96728.48;1649453;85;20506;-66
2021/03/15 11:11:22;;;;;;;;;;;;;;;4.50;90.18;96726.98;1651081;84;22127;-67
2021/03/15 11:13:53;;;;;;;;;;;;;;;4.49;90.25;96724.10;1650960;84;20450;-65
2021/03/15 11:16:22;;;;;;;;;;;;;;;4.50;90.72;96724.89;1672853;83;20510;-63
2021/03/15 11:19:07;;;;;;;;;;;;;;;4.50;90.59;96725.69;1658169;83;20509;-64
2021/03/15 11:21:39;;;;;;;;;;;;;;;4.53;90.21;96720.55;1666567;82;20997;-66
2021/03/15 11:24:11;;;;;;;;;;;;;;;4.52;89.77;96717.66;1640152;85;22022;-60
2021/03/15 11:26:50;;;;;;;;;;;;;;;4.52;90.77;96722.86;1654936;84;20572;-67
2021/03/15 11:29:35;;;;;;;;;;;;;;;4.52;90.50;96717.16;1658483;84;20540;-65
2021/03/15 11:32:09;;;;;;;;;;;;;;;4.55;90.74;96716.67;1624736;84;20607;-65
2021/03/15 11:34:48;;;;;;;;;;;;;;;4.59;90.56;96706.61;1651850;84;20773;-61
2021/03/15 11:37:24;;;;;;;;;;;;;;;4.63;89.64;96707.20;1655648;84;21859;-64
2021/03/15 11:39:54;;;;;;;;;;;;;;;4.66;89.96;96704.66;1656614;84;20515;-62
2021/03/15 11:42:29;;;;;;;;;;;;;;;4.67;89.59;96701.83;1658707;84;20608;-63
2021/03/15 11:44:59;;;;;;;;;;;;;;;4.67;89.48;96697.12;1674303;81;20523;-63
2021/03/15 11:47:27;;;;;;;;;;;;;;;4.65;88.79;96687.45;1678252;83;20745;-62
2021/03/15 11:49:57;;;;;;;;;;;;;;;4.64;88.69;96685.87;1648171;84;21934;-65
2021/03/15 11:52:29;;;;;;;;;;;;;;;4.63;89.05;96690.28;1654172;84;20517;-66
2021/03/15 11:55:01;;;;;;;;;;;;;;;4.62;89.25;96687.40;1677372;83;20263;-64
2021/03/15 11:57:32;;;;;;;;;;;;;;;4.61;89.64;96681.91;1645406;85;20590;-65
2021/03/15 12:00:00;;;;;;;;;;;;;;;4.62;90.42;96674.89;1646730;84;20497;-66
2021/03/15 12:02:31;;;;;;;;;;;;;;;4.62;90.22;96676.98;1636995;84;21903;-63
2021/03/15 12:05:03;;;;;;;;;;;;;;;4.60;90.52;96672.55;1647019;84;20506;-68
2021/03/15 12:07:33;;;;;;;;;;;;;;;4.59;90.77;96663.16;1644933;84;20263;-69
2021/03/15 12:10:05;;;;;;;;;;;;;;;4.61;90.55;96669.44;1679327;83;20544;-67
2021/03/15 12:12:34;;;;;;;;;;;;;;;4.59;90.76;96666.27;1643582;85;20667;-66
2021/03/15 12:15:08;;;;;;;;;;;;;;;4.59;90.77;96661.86;1685734;82;22221;-64
2021/03/15 12:17:38;;;;;;;;;;;;;;;4.58;91.31;96657.67;1684407;83;20567;-65
2021/03/15 12:20:08;;;;;;;;;;;;;;;4.59;90.97;96652.75;1703722;81;20513;-65
2021/03/15 12:22:48;;;;;;;;;;;;;;;4.60;90.74;96654.34;1704415;81;20771;-67
2021/03/15 12:25:18;;;;;;;;;;;;;;;4.60;90.84;96650.95;1711846;81;20493;-68
2021/03/15 12:27:48;;;;;;;;;;;;;;;4.59;90.53;96650.15;1696965;81;21931;-65
2021/03/15 12:30:17;;;;;;;;;;;;;;;4.56;90.50;96653.72;1705496;81;20574;-67
2021/03/15 12:32:52;;;;;;;;;;;;;;;4.54;91.16;96645.38;1709829;81;20462;-67
2021/03/15 12:35:21;;;;;;;;;;;;;;;4.54;91.60;96649.28;1716793;82;20490;-68
2021/03/15 12:37:49;;;;;;;;;;;;;;;4.53;91.11;96649.78;1715340;81;20477;-73
2021/03/15 12:40:21;;;;;;;;;;;;;;;4.54;90.43;96645.38;1680884;83;22357;-64
2021/03/15 12:42:49;;;;;;;;;;;;;;;4.54;90.66;96645.38;1716961;81;20614;-77
2021/03/15 12:45:19;;;;;;;;;;;;;;;4.53;91.44;96646.39;1711711;82;20483;-70
2021/03/15 12:47:50;;;;;;;;;;;;;;;4.54;91.69;96649.28;1713798;81;20567;-70
2021/03/15 12:50:19;;;;;;;;;;;;;;;4.55;92.03;96644.33;1714895;82;20628;-71
2021/03/15 12:52:47;;;;;;;;;;;;;;;4.58;92.22;96645.97;1700436;81;21914;-60
2021/03/15 12:55:22;;;;;;;;;;;;;;;4.62;91.50;96641.86;1691495;81;20582;-66
2021/03/15 12:57:52;;;;;;;;;;;;;;;4.62;90.18;96635.36;1711330;81;20781;-65
2021/03/15 13:00:20;;;;;;;;;;;;;;;4.64;91.18;96635.92;1717667;81;20589;-66
2021/03/15 13:02:56;;;;;;;;;;;;;;;4.66;91.52;96636.48;1711142;81;20890;-66
2021/03/15 13:05:24;;;;;;;;;;;;;;;4.70;91.56;96634.19;1701009;82;22072;-68
2021/03/15 13:08:11;;;;;;;;;;;;;;;4.68;90.33;96634.41;1719278;81;20585;-67
2021/03/15 13:10:44;;;;;;;;;;;;;;;4.66;90.58;96640.90;1697467;82;20259;-72
2021/03/15 13:13:12;;;;;;;;;;;;;;;4.62;90.75;96643.16;1713441;81;20910;-68
2021/03/15 13:15:43;;;;;;;;;;;;;;;4.59;90.96;96641.05;1715200;81;20498;-69
2021/03/15 13:18:15;;;;;;;;;;;;;;;4.55;91.01;96640.42;1711801;81;22450;-68
2021/03/15 13:20:45;;;;;;;;;;;;;;;4.55;91.59;96638.61;1710942;81;20579;-65
2021/03/15 13:23:13;;;;;;;;;;;;;;;4.52;90.83;96640.40;1707684;81;20558;-62
2021/03/15 13:25:49;;;;;;;;;;;;;;;4.51;91.15;96633.61;1711419;81;20632;-70
2021/03/15 13:28:19;;;;;;;;;;;;;;;4.50;91.63;96639.83;1710048;81;21173;-66
2021/03/15 13:30:47;;;;;;;;;;;;;;;4.53;91.92;96643.80;1708626;81;22267;-67
2021/03/15 13:33:15;;;;;;;;;;;;;;;4.55;92.43;96642.52;1712570;81;20480;-67
2021/03/15 13:35:47;;;;;;;;;;;;;;;4.55;92.95;96643.81;1709410;81;20245;-69
2021/03/15 13:38:17;;;;;;;;;;;;;;;4.57;92.00;96645.69;1708826;81;20610;-70
2021/03/15 13:40:47;;;;;;;;;;;;;;;4.55;92.25;96643.81;1707277;81;20766;-67
2021/03/15 13:43:16;;;;;;;;;;;;;;;4.57;92.26;96645.69;1711592;81;21478;-69
2021/03/15 13:45:46;;;;;;;;;;;;;;;4.57;92.44;96648.28;1715393;81;20216;-71
2021/03/15 13:48:16;;;;;;;;;;;;;;;4.54;91.79;96643.53;1714571;81;20547;-68
2021/03/15 13:50:46;;;;;;;;;;;;;;;4.52;92.18;96637.00;1726164;81;20974;-70
2021/03/15 13:53:14;;;;;;;;;;;;;;;4.46;92.65;96637.43;1710752;81;20980;-68
2021/03/15 13:55:45;;;;;;;;;;;;;;;4.44;92.85;96638.17;1724977;81;22186;-70
2021/03/15 13:58:14;;;;;;;;;;;;;;;4.44;93.63;96634.77;1704758;81;20558;-66
2021/03/15 14:00:45;;;;;;;;;;;;;;;4.45;94.01;96629.86;1704222;81;20672;-70
2021/03/15 14:03:32;;;;;;;;;;;;;;;4.47;94.33;96631.69;1705260;81;20497;-70
2021/03/15 14:06:03;;;;;;;;;;;;;;;4.47;94.42;96629.09;1687463;81;20691;-71
2021/03/15 14:08:32;;;;;;;;;;;;;;;4.48;94.23;96629.38;1651639;84;21794;-70
2021/03/15 14:10:59;;;;;;;;;;;;;;;4.45;94.95;96624.65;1684359;83;20529;-70
2021/03/15 14:13:29;;;;;;;;;;;;;;;4.48;95.26;96624.96;1683320;83;20321;-69
2021/03/15 14:15:57;;;;;;;;;;;;;;;4.50;94.77;96622.92;1682354;83;20624;-72
2021/03/15 14:18:33;;;;;;;;;;;;;;;4.50;94.59;96628.63;1689069;83;20879;-70
2021/03/15 14:21:04;;;;;;;;;;;;;;;4.47;94.03;96630.39;1666386;82;21908;-71
2021/03/15 14:23:32;;;;;;;;;;;;;;;4.45;94.84;96624.14;1689776;82;20289;-74
2021/03/15 14:26:00;;;;;;;;;;;;;;;4.45;94.61;96628.55;1688571;83;20423;-77
2021/03/15 14:28:30;;;;;;;;;;;;;;;4.44;94.94;96632.96;1687080;83;21117;-77
2021/03/15 14:31:09;;;;;;;;;;;;;;;4.45;95.47;96625.44;1634614;84;20888;-73
2021/03/15 14:33:37;;;;;;;;;;;;;;;4.44;95.93;96622.56;1668882;84;22218;-72
2021/03/15 14:36:07;;;;;;;;;;;;;;;4.46;96.60;96623.63;1663236;82;20480;-71
2021/03/15 14:38:39;;;;;;;;;;;;;;;4.48;96.98;96627.56;1665818;83;20399;-73
2021/03/15 14:41:08;;;;;;;;;;;;;;;4.49;96.40;96627.05;1690279;83;20948;-73
2021/03/15 14:43:36;;;;;;;;;;;;;;;4.48;95.60;96626.77;1722835;81;20493;-70
2021/03/15 14:46:09;;;;;;;;;;;;;;;4.45;95.50;96624.14;1668526;84;22466;-69
2021/03/15 14:48:46;;;;;;;;;;;;;;;4.43;95.71;96627.98;1656759;84;20474;-70
2021/03/15 14:51:16;;;;;;;;;;;;;;;4.41;95.92;96631.32;1694005;84;20228;-68
2021/03/15 14:53:46;;;;;;;;;;;;;;;4.41;96.49;96629.52;1682163;84;20427;-70
2021/03/15 14:56:16;;;;;;;;;;;;;;;4.39;96.16;96626.38;1668720;84;20538;-68
2021/03/15 14:58:45;;;;;;;;;;;;;;;4.37;96.06;96623.21;1682020;84;21388;-67
2021/03/15 15:01:14;;;;;;;;;;;;;;;4.35;95.93;96624.45;1682544;82;20392;-71
2021/03/15 15:03:44;;;;;;;;;;;;;;;4.32;97.06;96630.39;1683466;83;20326;-71
